Spring Garden, AL (36275)

10:05 AM CST on March 01, 2015 (GMT -0600)
RAWS TERRAPIN CREEK AL US | Change Station
CLOSE
Current Station
Personal Weather Station
Location: Spring Garden, AL
Elevation: 805 ft
Nearby Weather Stations

Elev 805 ft 33.89 °N, 85.53 °W | Updated 58 minutes ago

Overcast
Overcast
43 °F
Feels Like 41 °F
N
4
Wind Variable Wind from South
Gusts 9.0 mph

Today
High -- | Low -- °F
--% Chance of Precip.
Yesterday
High -- | Low -- °F
Precip. -- in
6:11 AM 5:38 PM
Waxing Gibbous, 86% visible
Pressure 30.42 in
Visibility 10.0 miles
Clouds Overcast 1200 ft
Windchill 41 °F
Dew Point 38 °F
Humidity 83%
Rainfall 0.00 in
Snow Depth Not available.
UV 1 out of 12
Pollen 8.00 out of 12
Air Quality Not available.
Flu Activity Not available.
METAR KGAD 011535Z 13008KT 10SM OVC012 08/04 A3042 RMK AO1

More Conditions Fewer Conditions

Pressure 30.42 in
Visibility 10.0 miles
Clouds Overcast 1200 ft
Windchill 41 °F
Dew Point 38 °F
Humidity 83%
Rainfall 0.00 in
Snow Depth Not available.
UV 1 out of 12
Pollen 8.00 out of 12
Air Quality Not available.
Flu Activity Not available.
METAR KGAD 011535Z 13008KT 10SM OVC012 08/04 A3042 RMK AO1

More Conditions Fewer Conditions

10-Day Weather Forecast

Almanac

Astronomy

Mar. 01, 2015 Rise Set
Actual Time
Civil Twilight
Nautical Twilight
Astronomical Twilight
Moon
Length of Visible Light
Length of Day
Tomorrow will be .
, % of the Moon is Illuminated

Today's Extremes

State Highs State Lows

Community

WunderPhotos

Upload Photos

1,801,440 photos uploaded!

WunderBlogs® & News

Nearby

Air Quality

  Air Quality AQ Index Pollutant
Not available.

Snow Depth

Station Depth Elevation

Earthquake Activity

City Distance Mag. Time & Date
Minimum magnitude displayed is 2.5.

Coastal Water Temperatures

Place Temperature

Nearby Weather Stations